createdAt,value
2019-01-26T00:00:13.893Z,53.87
2019-01-26T00:02:42.206Z,54.13
2019-01-26T00:05:10.752Z,53.33
2019-01-26T00:07:39.050Z,52.27
2019-01-26T00:10:08.835Z,50.73
2019-01-26T00:12:37.134Z,52.00
2019-01-26T00:15:08.418Z,52.27
2019-01-26T00:17:36.973Z,50.67
2019-01-26T00:20:08.118Z,56.67
2019-01-26T00:22:36.406Z,74.03
2019-01-26T00:25:05.550Z,78.57
2019-01-26T00:27:33.874Z,88.40
2019-01-26T00:30:02.539Z,82.30
2019-01-26T00:32:31.120Z,82.73
2019-01-26T00:34:59.811Z,83.97
2019-01-26T00:37:28.118Z,84.43
2019-01-26T00:39:56.758Z,83.40
2019-01-26T00:42:25.041Z,84.77
2019-01-26T00:44:53.377Z,82.03
2019-01-26T00:47:21.661Z,78.60
2019-01-26T00:49:50.270Z,80.20
2019-01-26T00:52:18.878Z,80.87
2019-01-26T00:54:47.258Z,79.37
2019-01-26T00:57:15.573Z,77.83
2019-01-26T00:59:44.199Z,70.57
2019-01-26T01:02:12.779Z,77.23
2019-01-26T01:04:41.377Z,83.57
2019-01-26T01:07:10.060Z,86.73
2019-01-26T01:09:38.354Z,81.40
2019-01-26T01:12:06.727Z,79.17
2019-01-26T01:14:35.286Z,77.90
2019-01-26T01:17:03.874Z,76.90
2019-01-26T01:19:32.473Z,78.10
2019-01-26T01:22:00.835Z,77.63
2019-01-26T01:24:29.131Z,73.37
2019-01-26T01:26:57.425Z,73.77
2019-01-26T01:29:25.727Z,75.03
2019-01-26T01:31:54.290Z,72.13
2019-01-26T01:34:22.662Z,72.83
2019-01-26T01:36:51.314Z,72.50
2019-01-26T01:39:19.637Z,78.17
2019-01-26T01:41:47.977Z,84.87
2019-01-26T01:44:16.293Z,109.30
2019-01-26T01:46:44.931Z,101.17
2019-01-26T01:49:13.510Z,88.43
2019-01-26T01:51:42.101Z,87.70
2019-01-26T01:54:10.383Z,77.63
2019-01-26T01:56:38.957Z,79.67
2019-01-26T01:59:07.247Z,82.43
2019-01-26T02:01:35.547Z,91.80
2019-01-26T02:04:03.905Z,108.87
2019-01-26T02:06:32.213Z,109.40
2019-01-26T02:09:00.854Z,105.87
2019-01-26T02:11:29.437Z,105.67
2019-01-26T02:13:57.738Z,100.03
2019-01-26T02:16:26.044Z,105.60
2019-01-26T02:18:54.680Z,99.93
2019-01-26T02:21:22.979Z,86.73
2019-01-26T02:23:51.663Z,98.27
2019-01-26T02:26:20.326Z,83.30
2019-01-26T02:28:48.630Z,111.87
2019-01-26T02:31:16.958Z,107.67
2019-01-26T02:33:45.322Z,99.57
2019-01-26T02:36:13.597Z,96.63
2019-01-26T02:38:41.910Z,92.40
2019-01-26T02:41:10.500Z,86.10
2019-01-26T02:43:39.082Z,85.23
2019-01-26T02:46:07.671Z,86.37
2019-01-26T02:48:35.975Z,78.67
2019-01-26T02:51:04.357Z,76.53
2019-01-26T02:53:32.663Z,73.53
2019-01-26T02:56:00.966Z,73.33
2019-01-26T02:58:29.250Z,66.67
2019-01-26T03:00:57.834Z,66.60
2019-01-26T03:03:26.158Z,64.03
2019-01-26T03:05:54.535Z,62.13
2019-01-26T03:08:22.829Z,60.40
2019-01-26T03:10:51.194Z,58.00
2019-01-26T03:13:19.476Z,58.50
2019-01-26T03:15:48.298Z,56.03
2019-01-26T03:18:16.586Z,54.73
2019-01-26T03:20:45.182Z,53.90
2019-01-26T03:23:13.758Z,50.63
2019-01-26T03:25:42.342Z,50.47
2019-01-26T03:28:10.667Z,49.63
2019-01-26T03:30:38.944Z,48.10
2019-01-26T03:33:07.689Z,49.07
2019-01-26T03:35:36.272Z,47.20
2019-01-26T03:38:04.854Z,46.77
2019-01-26T03:40:33.159Z,45.10
2019-01-26T03:43:01.446Z,44.27
2019-01-26T03:45:29.930Z,44.30
2019-01-26T03:47:58.476Z,44.90
2019-01-26T03:50:27.050Z,42.17
2019-01-26T03:52:55.652Z,42.43
2019-01-26T03:55:24.227Z,40.97
2019-01-26T03:57:52.522Z,39.30
2019-01-26T04:00:25.868Z,40.23
2019-01-26T04:02:54.149Z,37.40
2019-01-26T04:05:22.751Z,38.47
2019-01-26T04:07:51.339Z,37.50
2019-01-26T04:10:19.619Z,39.83
2019-01-26T04:12:47.956Z,37.73
2019-01-26T04:15:18.432Z,36.57
2019-01-26T04:17:46.713Z,35.27
2019-01-26T04:20:17.349Z,35.30
2019-01-26T04:22:46.033Z,33.87
2019-01-26T04:25:14.325Z,33.17
2019-01-26T04:27:42.984Z,33.97
2019-01-26T04:30:14.565Z,32.73
2019-01-26T04:32:42.872Z,33.43
2019-01-26T04:35:11.603Z,31.63
2019-01-26T04:37:39.977Z,32.43
2019-01-26T04:40:11.014Z,31.47
2019-01-26T04:42:39.377Z,29.33
2019-01-26T04:45:13.242Z,29.80
2019-01-26T04:47:41.786Z,30.57
2019-01-26T04:50:13.119Z,28.73
2019-01-26T04:52:41.726Z,32.40
2019-01-26T04:55:11.634Z,40.87
2019-01-26T04:57:39.921Z,43.77
2019-01-26T05:00:20.279Z,38.13
2019-01-26T05:02:48.878Z,35.37
2019-01-26T05:05:17.763Z,32.23
2019-01-26T05:07:46.339Z,31.97
2019-01-26T05:10:21.779Z,31.00
2019-01-26T05:12:50.493Z,30.27
2019-01-26T05:15:19.381Z,30.07
2019-01-26T05:17:47.753Z,44.40
2019-01-26T05:20:21.330Z,40.47
2019-01-26T05:22:49.651Z,43.17
2019-01-26T05:25:18.009Z,41.43
2019-01-26T05:27:46.574Z,35.67
2019-01-26T05:30:18.128Z,35.70
2019-01-26T05:32:46.815Z,34.07
2019-01-26T05:35:15.397Z,33.63
2019-01-26T05:37:43.976Z,32.23
2019-01-26T05:40:15.070Z,31.80
2019-01-26T05:42:43.360Z,41.53
2019-01-26T05:45:13.877Z,37.90
2019-01-26T05:47:48.453Z,33.60
2019-01-26T05:50:17.504Z,31.80
2019-01-26T05:52:45.788Z,30.87
2019-01-26T05:55:14.613Z,29.33
2019-01-26T05:57:43.198Z,29.90
2019-01-26T06:00:14.786Z,27.77
2019-01-26T06:02:43.070Z,28.80
2019-01-26T06:05:11.716Z,28.10
2019-01-26T06:07:40.010Z,26.43
2019-01-26T06:10:08.489Z,26.87
2019-01-26T06:12:36.769Z,26.77
2019-01-26T06:15:07.586Z,25.77
2019-01-26T06:17:35.903Z,23.47
2019-01-26T06:20:07.218Z,25.63
2019-01-26T06:22:35.794Z,36.60
2019-01-26T06:25:07.079Z,34.57
2019-01-26T06:27:35.631Z,43.03
2019-01-26T06:30:07.231Z,38.07
2019-01-26T06:32:35.864Z,34.10
2019-01-26T06:35:05.799Z,34.63
2019-01-26T06:37:34.082Z,34.00
2019-01-26T06:40:02.380Z,29.93
2019-01-26T06:42:30.665Z,31.37
2019-01-26T06:44:59.298Z,28.90
2019-01-26T06:47:27.881Z,27.93
2019-01-26T06:49:56.186Z,28.27
2019-01-26T06:52:24.838Z,26.40
2019-01-26T06:54:53.125Z,26.10
2019-01-26T06:57:21.710Z,25.80
2019-01-26T06:59:50.008Z,25.40
2019-01-26T07:02:18.662Z,25.27
2019-01-26T07:04:51.311Z,24.77
2019-01-26T07:07:19.927Z,23.00
2019-01-26T07:09:48.218Z,24.33
2019-01-26T07:12:16.785Z,24.60
2019-01-26T07:14:45.369Z,21.70
2019-01-26T07:17:13.650Z,23.30
2019-01-26T07:19:42.230Z,21.70
2019-01-26T07:22:10.815Z,21.63
2019-01-26T07:24:39.399Z,22.00
2019-01-26T07:27:07.681Z,21.83
2019-01-26T07:29:36.262Z,21.17
2019-01-26T07:32:04.562Z,21.93
2019-01-26T07:34:33.334Z,20.10
2019-01-26T07:37:01.904Z,20.23
2019-01-26T07:39:30.218Z,19.87
2019-01-26T07:41:58.530Z,19.57
2019-01-26T07:44:27.150Z,18.90
2019-01-26T07:46:55.430Z,19.33
2019-01-26T07:49:24.007Z,19.57
2019-01-26T07:51:52.323Z,18.73
2019-01-26T07:54:20.864Z,17.57
2019-01-26T07:56:49.754Z,18.83
2019-01-26T07:59:18.342Z,17.47
2019-01-26T08:01:46.926Z,17.73
2019-01-26T08:04:15.231Z,17.53
2019-01-26T08:06:43.533Z,17.57
2019-01-26T08:09:11.838Z,16.00
2019-01-26T08:11:40.446Z,16.73
2019-01-26T08:14:08.764Z,16.17
2019-01-26T08:16:37.037Z,15.77
2019-01-26T08:19:05.686Z,16.07
2019-01-26T08:21:34.262Z,15.73
2019-01-26T08:24:02.573Z,15.03
2019-01-26T08:26:30.949Z,15.13
2019-01-26T08:28:59.242Z,15.10
2019-01-26T08:31:27.774Z,15.03
2019-01-26T08:33:56.077Z,15.10
2019-01-26T08:36:24.640Z,13.80
2019-01-26T08:38:52.922Z,14.87
2019-01-26T08:41:21.514Z,13.73
2019-01-26T08:43:51.288Z,13.77
2019-01-26T08:46:20.022Z,13.17
2019-01-26T08:48:48.578Z,13.43
2019-01-26T08:51:17.162Z,13.83
2019-01-26T08:53:45.745Z,13.50
2019-01-26T08:56:14.046Z,13.50
2019-01-26T08:58:42.608Z,13.10
2019-01-26T09:01:11.190Z,13.10
2019-01-26T09:03:49.866Z,13.13
2019-01-26T09:06:20.059Z,13.63
2019-01-26T09:08:48.624Z,12.77
2019-01-26T09:11:17.201Z,12.80
2019-01-26T09:13:45.517Z,12.37
2019-01-26T09:16:13.806Z,12.23
2019-01-26T09:18:42.442Z,12.17
2019-01-26T09:21:10.729Z,11.33
2019-01-26T09:23:39.012Z,10.83
2019-01-26T09:26:07.314Z,10.67
2019-01-26T09:28:36.170Z,11.33
2019-01-26T09:31:04.762Z,12.07
2019-01-26T09:33:33.065Z,56.27
2019-01-26T09:36:01.436Z,49.83
2019-01-26T09:38:30.096Z,36.43
2019-01-26T09:40:58.667Z,36.03
2019-01-26T09:43:27.255Z,31.17
2019-01-26T09:45:55.846Z,30.77
2019-01-26T09:48:24.419Z,27.50
2019-01-26T09:50:53.006Z,26.17
2019-01-26T09:53:21.585Z,27.87
2019-01-26T09:55:49.880Z,23.77
2019-01-26T09:58:18.172Z,23.87
2019-01-26T10:00:46.732Z,24.27
2019-01-26T10:03:15.025Z,29.70
2019-01-26T10:05:43.315Z,30.23
2019-01-26T10:08:11.702Z,25.50
2019-01-26T10:10:39.985Z,26.60
2019-01-26T10:13:08.269Z,25.53
2019-01-26T10:15:36.900Z,23.23
2019-01-26T10:18:05.477Z,22.37
2019-01-26T10:20:42.268Z,25.20
2019-01-26T10:23:10.550Z,28.27
2019-01-26T10:25:39.127Z,47.27
2019-01-26T10:28:07.702Z,74.23
2019-01-26T10:30:43.323Z,94.37
2019-01-26T10:33:11.630Z,64.60
2019-01-26T10:35:44.533Z,67.83
2019-01-26T10:38:12.826Z,61.27
2019-01-26T10:40:42.754Z,63.40
2019-01-26T10:43:13.133Z,60.37
2019-01-26T10:45:41.490Z,92.60
2019-01-26T10:48:10.104Z,90.57
2019-01-26T10:50:38.687Z,87.80
2019-01-26T10:53:07.368Z,88.67
2019-01-26T10:55:35.658Z,87.43
2019-01-26T10:58:04.329Z,87.30
2019-01-26T11:00:32.615Z,83.70
2019-01-26T11:03:00.905Z,102.23
2019-01-26T11:05:29.569Z,102.03
2019-01-26T11:07:58.167Z,90.73
2019-01-26T11:10:26.471Z,92.30
2019-01-26T11:12:54.838Z,90.50
2019-01-26T11:15:23.498Z,88.50
2019-01-26T11:17:52.037Z,86.07
2019-01-26T11:20:20.666Z,82.83
2019-01-26T11:22:49.243Z,83.60
2019-01-26T11:25:17.825Z,86.73
2019-01-26T11:27:46.533Z,58.13
2019-01-26T11:30:16.920Z,63.07
2019-01-26T11:32:45.251Z,57.47
2019-01-26T11:35:18.513Z,53.40
2019-01-26T11:37:46.786Z,50.00
2019-01-26T11:40:16.734Z,49.00
2019-01-26T11:42:45.090Z,48.50
2019-01-26T11:45:16.613Z,46.30
2019-01-26T11:47:44.907Z,46.27
2019-01-26T11:50:24.493Z,44.70
2019-01-26T11:52:53.143Z,44.23
2019-01-26T11:55:23.078Z,45.13
2019-01-26T11:57:51.637Z,47.63
2019-01-26T12:00:30.859Z,44.63
2019-01-26T12:03:00.778Z,44.07
2019-01-26T12:05:37.042Z,42.43
2019-01-26T12:08:05.348Z,44.07
2019-01-26T12:10:33.969Z,41.27
2019-01-26T12:13:02.264Z,42.07
2019-01-26T12:15:30.560Z,41.63
2019-01-26T12:17:58.847Z,44.43
2019-01-26T12:20:27.145Z,44.07
2019-01-26T12:22:55.704Z,45.57
2019-01-26T12:25:24.289Z,46.03
2019-01-26T12:27:52.870Z,43.73
2019-01-26T12:30:21.154Z,45.73
2019-01-26T12:32:49.453Z,44.80
2019-01-26T12:35:18.211Z,44.03
2019-01-26T12:37:46.513Z,41.87
2019-01-26T12:40:15.482Z,42.60
2019-01-26T12:42:43.781Z,41.90
2019-01-26T12:45:18.104Z,42.10
2019-01-26T12:47:46.764Z,41.53
2019-01-26T12:50:15.756Z,40.50
2019-01-26T12:52:44.057Z,39.17
2019-01-26T12:55:16.000Z,38.70
2019-01-26T12:57:44.577Z,38.07
2019-01-26T13:00:18.552Z,36.83
2019-01-26T13:02:47.174Z,36.97
2019-01-26T13:05:15.482Z,37.63
2019-01-26T13:07:44.136Z,36.57
2019-01-26T13:10:19.079Z,36.20
2019-01-26T13:12:47.383Z,36.33
2019-01-26T13:15:15.691Z,36.10
2019-01-26T13:17:43.981Z,35.70
2019-01-26T13:20:14.965Z,34.00
2019-01-26T13:22:43.259Z,32.83
2019-01-26T13:25:14.844Z,33.97
2019-01-26T13:27:43.143Z,31.77
2019-01-26T13:30:22.991Z,31.73
2019-01-26T13:32:51.694Z,33.00
2019-01-26T13:35:20.365Z,30.97
2019-01-26T13:37:48.971Z,32.43
2019-01-26T13:40:20.710Z,28.63
2019-01-26T13:42:49.011Z,30.80
2019-01-26T13:45:17.314Z,28.70
2019-01-26T13:47:45.610Z,30.70
2019-01-26T13:50:13.918Z,30.97
2019-01-26T13:52:42.211Z,28.60
2019-01-26T13:55:22.146Z,28.90
2019-01-26T13:57:50.474Z,28.73
2019-01-26T14:00:30.892Z,28.13
2019-01-26T14:02:59.470Z,27.67
2019-01-26T14:05:28.052Z,27.27
2019-01-26T14:07:56.642Z,26.70
2019-01-26T14:10:25.419Z,27.50
2019-01-26T14:12:53.835Z,26.43
2019-01-26T14:15:22.931Z,26.77
2019-01-26T14:17:51.595Z,25.63
2019-01-26T14:20:24.522Z,25.20
2019-01-26T14:22:53.155Z,25.77
2019-01-26T14:25:21.751Z,23.73
2019-01-26T14:27:50.094Z,25.63
2019-01-26T14:30:30.383Z,25.47
2019-01-26T14:32:58.680Z,24.73
2019-01-26T14:35:27.339Z,23.77
2019-01-26T14:37:55.619Z,23.27
2019-01-26T14:40:23.957Z,23.57
2019-01-26T14:42:54.332Z,22.80
2019-01-26T14:45:22.598Z,23.77
2019-01-26T14:47:50.906Z,32.57
2019-01-26T14:50:19.869Z,34.33
2019-01-26T14:52:48.159Z,37.20
2019-01-26T14:55:19.525Z,34.83
2019-01-26T14:57:47.825Z,32.33
2019-01-26T15:00:21.808Z,32.27
2019-01-26T15:02:50.118Z,31.90
2019-01-26T15:05:18.743Z,31.83
2019-01-26T15:07:47.046Z,29.23
2019-01-26T15:10:15.598Z,27.83
2019-01-26T15:12:43.906Z,27.47
2019-01-26T15:15:15.307Z,27.13
2019-01-26T15:17:43.663Z,26.07
2019-01-26T15:20:17.734Z,33.43
2019-01-26T15:22:46.176Z,38.90
2019-01-26T15:25:14.538Z,37.87
2019-01-26T15:27:42.910Z,34.43
2019-01-26T15:30:19.646Z,48.20
2019-01-26T15:32:48.323Z,42.43
2019-01-26T15:35:16.624Z,58.97
2019-01-26T15:37:44.924Z,55.77
2019-01-26T15:40:13.885Z,57.10
2019-01-26T15:42:42.163Z,56.23
2019-01-26T15:45:18.409Z,53.67
2019-01-26T15:47:46.695Z,58.03
2019-01-26T15:50:15.087Z,63.70
2019-01-26T15:52:43.747Z,59.60
2019-01-26T15:55:15.109Z,60.47
2019-01-26T15:57:43.675Z,57.87
2019-01-26T16:00:27.517Z,59.07
2019-01-26T16:02:56.112Z,56.33
2019-01-26T16:05:24.411Z,55.60
2019-01-26T16:07:53.062Z,53.97
2019-01-26T16:10:23.777Z,56.77
2019-01-26T16:12:52.198Z,56.60
2019-01-26T16:15:22.711Z,62.57
2019-01-26T16:17:51.390Z,61.90
2019-01-26T16:20:20.658Z,56.97
2019-01-26T16:22:48.960Z,54.63
2019-01-26T16:25:17.565Z,54.00
2019-01-26T16:27:46.135Z,51.13
2019-01-26T16:30:23.337Z,51.80
2019-01-26T16:32:51.624Z,51.20
2019-01-26T16:35:19.933Z,50.10
2019-01-26T16:37:48.479Z,48.77
2019-01-26T16:40:22.937Z,49.03
2019-01-26T16:42:51.570Z,46.73
2019-01-26T16:45:25.513Z,45.60
2019-01-26T16:47:53.846Z,47.00
2019-01-26T16:50:27.855Z,45.10
2019-01-26T16:52:56.767Z,45.50
2019-01-26T16:55:25.081Z,45.27
2019-01-26T16:57:53.374Z,43.23
2019-01-26T17:00:24.866Z,47.07
2019-01-26T17:02:53.451Z,48.13
2019-01-26T17:05:25.924Z,54.57
2019-01-26T17:07:52.367Z,56.33
2019-01-26T17:10:21.836Z,52.37
2019-01-26T17:12:50.446Z,55.30
2019-01-26T17:15:18.766Z,53.97
2019-01-26T17:17:47.300Z,51.53
2019-01-26T17:20:35.125Z,48.60
2019-01-26T17:23:03.696Z,47.10
2019-01-26T17:25:32.307Z,52.70
2019-01-26T17:28:00.621Z,46.10
2019-01-26T17:30:31.826Z,64.03
2019-01-26T17:33:06.905Z,60.33
2019-01-26T17:35:30.452Z,52.17
2019-01-26T17:37:59.139Z,53.87
2019-01-26T17:40:27.516Z,54.03
2019-01-26T17:42:55.921Z,51.83
2019-01-26T17:45:24.557Z,53.00
2019-01-26T17:47:53.567Z,51.00
2019-01-26T17:50:28.814Z,48.37
2019-01-26T17:52:57.278Z,47.53
2019-01-26T17:55:25.854Z,60.00
2019-01-26T17:57:54.450Z,68.17
2019-01-26T18:00:30.529Z,62.53
2019-01-26T18:02:58.837Z,60.43
2019-01-26T18:05:27.115Z,62.57
2019-01-26T18:07:55.442Z,101.80
2019-01-26T18:10:25.608Z,140.17
2019-01-26T18:12:54.266Z,143.80
2019-01-26T18:15:22.829Z,133.60
2019-01-26T18:17:51.412Z,127.43
2019-01-26T18:20:22.030Z,123.60
2019-01-26T18:22:50.753Z,122.33
2019-01-26T18:25:19.425Z,130.70
2019-01-26T18:27:47.721Z,125.63
2019-01-26T18:30:25.317Z,142.47
2019-01-26T18:32:53.610Z,130.63
2019-01-26T18:35:22.270Z,129.80
2019-01-26T18:37:50.600Z,132.20
2019-01-26T18:40:21.378Z,149.00
2019-01-26T18:42:49.658Z,157.53
2019-01-26T18:45:20.001Z,153.23
2019-01-26T18:47:48.653Z,160.77
2019-01-26T18:50:19.539Z,148.00
2019-01-26T18:52:48.180Z,144.33
2019-01-26T18:55:16.574Z,137.20
2019-01-26T18:57:46.566Z,131.73
2019-01-26T19:00:28.818Z,126.57
2019-01-26T19:03:00.416Z,125.90
2019-01-26T19:05:30.439Z,123.87
2019-01-26T19:07:59.045Z,119.37
2019-01-26T19:10:27.743Z,116.93
2019-01-26T19:12:56.054Z,110.23
2019-01-26T19:15:25.008Z,110.63
2019-01-26T19:17:53.411Z,122.40
2019-01-26T19:20:21.810Z,121.57
2019-01-26T19:22:50.467Z,115.93
2019-01-26T19:25:19.808Z,113.77
2019-01-26T19:27:48.533Z,107.73
2019-01-26T19:30:20.504Z,104.50
2019-01-26T19:32:48.878Z,103.07
2019-01-26T19:35:17.208Z,100.73
2019-01-26T19:37:45.528Z,98.83
2019-01-26T19:40:22.682Z,94.27
2019-01-26T19:42:50.979Z,92.20
2019-01-26T19:45:20.893Z,131.03
2019-01-26T19:47:49.594Z,119.53
2019-01-26T19:50:22.480Z,115.93
2019-01-26T19:52:50.884Z,118.30
2019-01-26T19:55:21.073Z,110.93
2019-01-26T19:57:49.729Z,102.40
2019-01-26T20:00:18.457Z,96.43
2019-01-26T20:02:46.869Z,91.33
2019-01-26T20:05:23.607Z,91.20
2019-01-26T20:07:51.987Z,101.87
2019-01-26T20:10:20.666Z,131.20
2019-01-26T20:12:49.237Z,125.23
2019-01-26T20:15:22.846Z,116.63
2019-01-26T20:17:51.227Z,118.53
2019-01-26T20:20:22.695Z,120.07
2019-01-26T20:22:51.378Z,114.30
2019-01-26T20:25:19.671Z,109.40
2019-01-26T20:27:48.335Z,107.10
2019-01-26T20:30:19.667Z,104.23
2019-01-26T20:32:48.131Z,121.57
2019-01-26T20:35:16.724Z,145.83
2019-01-26T20:37:45.318Z,171.30
2019-01-26T20:40:16.434Z,147.43
2019-01-26T20:42:44.736Z,171.47
2019-01-26T20:45:16.053Z,161.73
2019-01-26T20:47:44.705Z,142.20
2019-01-26T20:50:14.371Z,135.37
2019-01-26T20:52:42.688Z,121.90
2019-01-26T20:55:12.777Z,147.23
2019-01-26T20:57:41.468Z,187.83
2019-01-26T21:00:16.090Z,179.07
2019-01-26T21:02:44.449Z,168.07
2019-01-26T21:05:12.830Z,161.37
2019-01-26T21:07:41.319Z,158.30
2019-01-26T21:10:15.613Z,152.87
2019-01-26T21:12:43.914Z,147.67
2019-01-26T21:15:12.617Z,139.53
2019-01-26T21:17:40.941Z,135.87
2019-01-26T21:20:12.416Z,134.27
2019-01-26T21:22:40.719Z,131.00
2019-01-26T21:25:11.250Z,125.73
2019-01-26T21:27:39.574Z,122.40
2019-01-26T21:30:11.428Z,127.47
2019-01-26T21:32:40.058Z,120.17
2019-01-26T21:35:10.109Z,126.37
2019-01-26T21:37:38.758Z,118.80
2019-01-26T21:40:13.444Z,114.37
2019-01-26T21:42:41.742Z,129.47
2019-01-26T21:45:12.384Z,144.70
2019-01-26T21:47:40.712Z,134.57
2019-01-26T21:50:11.897Z,125.37
2019-01-26T21:52:41.064Z,122.33
2019-01-26T21:55:10.216Z,122.70
2019-01-26T21:57:38.751Z,113.67
2019-01-26T22:00:18.530Z,115.73
2019-01-26T22:02:46.820Z,114.13
2019-01-26T22:05:15.389Z,114.23
2019-01-26T22:07:44.032Z,107.40
2019-01-26T22:10:18.029Z,109.10
2019-01-26T22:12:46.893Z,104.93
2019-01-26T22:15:17.438Z,106.00
2019-01-26T22:17:47.138Z,102.90
2019-01-26T22:20:21.164Z,99.40
2019-01-26T22:22:50.164Z,97.90
2019-01-26T22:25:19.333Z,102.73
2019-01-26T22:27:47.742Z,91.23
2019-01-26T22:30:24.117Z,87.57
2019-01-26T22:32:52.782Z,89.43
2019-01-26T22:35:21.446Z,112.03
2019-01-26T22:37:50.034Z,98.20
2019-01-26T22:40:32.764Z,90.50
2019-01-26T22:43:01.337Z,117.17
2019-01-26T22:45:29.641Z,122.27
2019-01-26T22:47:57.930Z,148.10
2019-01-26T22:50:27.522Z,122.20
2019-01-26T22:52:56.283Z,126.90
2019-01-26T22:55:24.873Z,127.80
2019-01-26T22:57:53.459Z,132.63
2019-01-26T23:00:34.966Z,131.00
2019-01-26T23:03:03.723Z,130.43
2019-01-26T23:05:59.276Z,113.00
2019-01-26T23:08:33.182Z,105.60
2019-01-26T23:11:05.001Z,107.97
2019-01-26T23:13:34.387Z,106.43
2019-01-26T23:16:27.159Z,101.00
2019-01-26T23:19:20.018Z,104.50
2019-01-26T23:21:54.354Z,92.63
2019-01-26T23:24:31.721Z,90.97
2019-01-26T23:27:03.587Z,88.90
2019-01-26T23:29:47.086Z,89.60
2019-01-26T23:32:15.370Z,82.23
2019-01-26T23:34:43.688Z,79.50
2019-01-26T23:37:11.975Z,76.50
2019-01-26T23:39:40.279Z,77.73
2019-01-26T23:42:08.839Z,71.17
2019-01-26T23:44:37.139Z,67.17
2019-01-26T23:47:05.771Z,66.13
2019-01-26T23:49:34.108Z,61.30
2019-01-26T23:52:02.412Z,58.17
2019-01-26T23:54:31.011Z,60.33
2019-01-26T23:56:59.341Z,59.73
2019-01-26T23:59:27.626Z,58.83
